Nearby METAR Reports

EGNX - East Midlands, United Kingdom
Distance: S 18mi, 28km
Updated: 20/03/2019 08:50
Few Clouds
Few Clouds
 Wind from SW
Wind: SW 10 mph , 17 km/h
Temperature: 9°C
Wind Chill: 7°C
Dew Point: 9°C
Humidity: 100%
Barometer: 1030 hPa
Clouds: Few Clouds
Visibility: 6 miles , 10 km
Cloud details: Few Clouds 488 m
2019/03/20 08:50 EGNX 200850Z 23009KT 9999 FEW016 09/09 Q1030
EGCN - Doncaster Sheffi, United Kingdom
Distance: NNE 31mi, 50km
Updated: 20/03/2019 09:20
Clear
Clear
 Wind from SSW
Wind: SSW 8 mph , 13 km/h
Temperature: 13°C
Dew Point: 11°C
Humidity: 88%
Barometer: 1031 hPa
Summary: Clear
Visibility: greater than 7 miles , 10 km
2019/03/20 09:20 EGCN 200920Z 20007KT CAVOK 13/11 Q1031
EGYE - Barkston Heath R, United Kingdom
Distance: ESE 31mi, 50km
Updated: 19/03/2019 15:50
NOT Current
Mostly cloudy
Mostly cloudy
 Wind from WSW
Wind: WSW 12 mph , 19 km/h
Barometer: 1025 hPa
Clouds: Mostly cloudy
Visibility: 6 miles , 10 km
Cloud details: Partly cloudy 610 m
Mostly cloudy 1524 m
2019/03/19 15:50 EGYE 191550Z 24010KT 9999 SCT020 BKN050 ///// Q1025 WHT
 
EGXW - Waddington Raf, United Kingdom
Distance: ENE 33mi, 53km
Updated: 20/03/2019 08:50
Mostly cloudy
Mostly cloudy
 Wind from SW
Wind: SW 12 mph , 19 km/h
Temperature: 9°C
Wind Chill: 6°C
Dew Point: 8°C
Humidity: 94%
Barometer: 1030 hPa
Clouds: Mostly cloudy
Visibility: 6 miles , 10 km
Cloud details: Few Clouds 305 m
Mostly cloudy 7620 m
2019/03/20 08:50 EGXW 200850Z 23010KT 9999 FEW010 BKN250 09/08 Q1030 BLU NOSIG
EGYD - Cranwell Raf, United Kingdom
Distance: E 33mi, 53km
Updated: 20/03/2019 08:50
Mostly cloudy
Mostly cloudy
 Wind from W
Wind: W 16 mph , 26 km/h
Temperature: 10°C
Wind Chill: 7°C
Dew Point: 8°C
Humidity: 88%
Barometer: 1030 hPa
Clouds: Mostly cloudy
Visibility: 6 miles , 10 km
Cloud details: Few Clouds 1219 m
Mostly cloudy 7620 m
2019/03/20 08:50 EGYD 200850Z 26014KT 9999 FEW040 BKN250 10/08 Q1030 BLU NOSIG
EGXP - Scampton Raf, United Kingdom
Distance: ENE 35mi, 56km
Updated: 20/03/2019 08:50
Clear
Clear
 Wind from SSW
Wind: SSW 9 mph , 15 km/h
Temperature: 10°C
Wind Chill: 8°C
Dew Point: 9°C
Humidity: 94%
Barometer: 1029 hPa
Clouds: Clear
Visibility: 6 miles , 10 km
2019/03/20 08:50 EGXP 200850Z AUTO 21008KT 9999 // NCD 10/09 Q1029
 
EGCC - Manchester Intl, United Kingdom
Distance: WNW 45mi, 72km
Updated: 20/03/2019 09:20
Few Clouds
Few Clouds
 Wind from varies
Wind: varies 3 mph , 6 km/h
Temperature: 11°C
Dew Point: 9°C
Humidity: 88%
Barometer: 1030 hPa
Clouds: Few Clouds
Visibility: 6 miles , 10 km
Cloud details: Few Clouds 305 m
2019/03/20 09:20 EGCC 200920Z VRB03KT 9999 FEW010 11/09 Q1030 NOSIG
EGBB - Birmingham Airpo, United Kingdom
Distance: SSW 46mi, 74km
Updated: 20/03/2019 09:20
Few Clouds
Few Clouds
 Wind from SSW
Wind: SSW 7 mph , 11 km/h
Temperature: 12°C
Dew Point: 8°C
Humidity: 77%
Barometer: 1031 hPa
Clouds: Few Clouds
Visibility: 6 miles , 10 km
Cloud details: Few Clouds 366 m
2019/03/20 09:20 EGBB 200920Z 20006KT 170V230 9999 FEW012 12/08 Q1031
EGXC - Coningsby Raf, United Kingdom
Distance: E 47mi, 75km
Updated: 20/03/2019 08:50
Clear
Clear
 Wind from WSW
Wind: WSW 7 mph , 11 km/h
Temperature: 9°C
Wind Chill: 7°C
Dew Point: 8°C
Humidity: 94%
Barometer: 1030 hPa
Summary: Clear
Visibility: greater than 7 miles , 10 km
2019/03/20 08:50 EGXC 200850Z 24006KT CAVOK 09/08 Q1030 BLU NOSIG
 
EGXT - Wittering Raf, United Kingdom
Distance: SE 47mi, 75km
Updated: 20/03/2019 08:50
Haze, Mostly cloudy
Haze, Mostly cloudy
 Wind from WSW
Wind: WSW 10 mph , 17 km/h
Temperature: 9°C
Wind Chill: 7°C
Dew Point: 8°C
Humidity: 94%
Barometer: 1030 hPa
Summary: Haze
Clouds: Mostly cloudy
Visibility: 6 miles , 9 km
Cloud details: Mostly cloudy 6401 m
2019/03/20 08:50 EGXT 200850Z 24009KT 9000 HZ BKN210 09/08 Q1030 BLU
EGNJ - Humberside, United Kingdom
Distance: NE 52mi, 83km
Updated: 20/03/2019 09:20
Few Clouds
Few Clouds
 Wind from SSW
Wind: SSW 13 mph , 20 km/h
Temperature: 11°C
Dew Point: 9°C
Humidity: 88%
Barometer: 1030 hPa
Clouds: Few Clouds
Visibility: 6 miles , 10 km
Cloud details: Few Clouds 488 m
2019/03/20 09:20 EGNJ 200920Z 21011KT 9999 FEW016 11/09 Q1030
EGWC - Cosford Raf, United Kingdom
Distance: SW 52mi, 83km
Updated: 20/03/2019 08:50
Clear
Clear
 Wind from SSW
Wind: SSW 7 mph , 11 km/h
Temperature: 10°C
Wind Chill: 8°C
Dew Point: 8°C
Humidity: 88%
Barometer: 1031 hPa
Summary: Clear
Visibility: greater than 7 miles , 10 km
2019/03/20 08:50 EGWC 200850Z 20006KT CAVOK 10/08 Q1031 BLU
 
EGNM - Leeds And Bradfo, United Kingdom
Distance: NNW 57mi, 91km
Updated: 20/03/2019 09:20
Mostly cloudy
Mostly cloudy
 Wind from WSW
Wind: WSW 14 mph , 22 km/h
Temperature: 10°C
Wind Chill: 7°C
Dew Point: 9°C
Humidity: 94%
Barometer: 1029 hPa
Clouds: Mostly cloudy
Visibility: 6 miles , 10 km
Cloud details: Few Clouds 183 m
Mostly cloudy 244 m
2019/03/20 09:20 EGNM 200920Z 25012KT 9999 FEW006 BKN008 10/09 Q1029
EGOS - Shawbury Raf, United Kingdom
Distance: WSW 60mi, 97km
Updated: 20/03/2019 08:50
Mostly cloudy
Mostly cloudy
 Wind from WSW
Wind: WSW 8 mph , 13 km/h
Temperature: 11°C
Dew Point: 9°C
Humidity: 88%
Barometer: 1030 hPa
Clouds: Mostly cloudy
Visibility: 6 miles , 10 km
Cloud details: Few Clouds 305 m
Mostly cloudy 7620 m
2019/03/20 08:50 EGOS 200850Z 24007KT 9999 FEW010 BKN250 11/09 Q1030 BLU TEMPO SCT015 WHT
EGYH - Holbeach (aut), United Kingdom
Distance: ESE 62mi, 99km
Updated: 20/03/2019 08:50
Clear
Clear
 Wind from WSW
Wind: WSW 13 mph , 20 km/h
Temperature: 10°C
Wind Chill: 7°C
Dew Point: 9°C
Humidity: 94%
Barometer: 1031 hPa
Summary: Clear
Visibility: greater than 7 miles , 10 km
2019/03/20 08:50 EGYH 200850Z 25011KT CAVOK 10/09 Q1031 BLU
 
EGXV - Leconfield (aut), United Kingdom
Distance: NNE 65mi, 105km
Updated: 20/03/2019 08:50
Mostly cloudy
Mostly cloudy
 Wind from WSW
Wind: WSW 8 mph , 13 km/h
Temperature: 11°C
Dew Point: 9°C
Humidity: 88%
Barometer: 1029 hPa
Clouds: Mostly cloudy
Visibility: 6 miles , 10 km
Cloud details: Mostly cloudy 1829 m
2019/03/20 08:50 EGXV 200850Z AUTO 25007KT 9999 BKN060/// 11/09 Q1029
EGXS - Donna Nook Raf, United Kingdom
Distance: ENE 66mi, 106km
Updated: 20/03/2019 08:50
Partly cloudy
Partly cloudy
 Wind from SW
Wind: SW 12 mph , 19 km/h
Temperature: 12°C
Dew Point: 9°C
Humidity: 82%
Barometer: 1029 hPa
Clouds: Partly cloudy
Visibility: 6 miles , 10 km
Cloud details: Partly cloudy 2134 m
Partly cloudy 3048 m
2019/03/20 08:50 EGXS 200850Z AUTO 22010KT 9999 // SCT070/// SCT100/// 12/09 Q1029
EGGP - Liverpool Airpor, United Kingdom
Distance: WNW 67mi, 107km
Updated: 20/03/2019 09:20
Clear
Clear
 Wind from varies
Wind: varies 3 mph , 6 km/h
Temperature: 11°C
Dew Point: 9°C
Humidity: 88%
Barometer: 1030 hPa
Summary: Clear
Visibility: greater than 7 miles , 10 km
2019/03/20 09:20 EGGP 200920Z VRB03KT CAVOK 11/09 Q1030
 
EGXU - Linton-On-Ouse R, United Kingdom
Distance: N 68mi, 109km
Updated: 20/03/2019 08:50
Few Clouds
Few Clouds
 Wind from W
Wind: W 14 mph , 22 km/h
Temperature: 12°C
Dew Point: 9°C
Humidity: 82%
Barometer: 1029 hPa
Clouds: Few Clouds
Visibility: 6 miles , 10 km
Cloud details: Few Clouds 396 m
2019/03/20 08:50 EGXU 200850Z AUTO 27012KT 9999 // FEW013/// 12/09 Q1029
EGNR - Hawarden (aut), United Kingdom
Distance: W 70mi, 112km
Updated: 20/03/2019 09:20
Clear
Clear
 Wind from SE
Wind: SE 5 mph , 7 km/h
Temperature: 12°C
Dew Point: 9°C
Humidity: 82%
Barometer: 1031 hPa
Summary: Clear
Visibility: greater than 7 miles , 10 km
2019/03/20 09:20 EGNR 200920Z 14004KT CAVOK 12/09 Q1031